CMA CGM Kingfish — A8YW9 — position and weather

sailwx.info

Track history (hours):
 
Tides and Currents Weather Stations Pressure Air Temp Water Temp Dewpoint Dewpoint Depression Visibility Wind Speed Wind Dir Waves Ship Positions

CMA CGM Kingfish

Last reported at 2015-May-19 13:28 UTC. Time now 2015-May-25 01:26 UTC.
Position N 32°38' W 079°38'.

Length 294 m; draft 12.5 m.

Type: Ship (hazmat cat A). MMSI: 636015147.

Date/timePositionNaut miles runAvg speedWind from/ knotsBaromVisibWave heightAir tempDewpointWater temp
2015-May-19 13:28N 32°38' W 079°38'2111.1
2015-May-19 11:34N 32°52' W 079°57'3 1.0
2015-May-19 09:03N 32°54' W 079°58'0 0.0
2015-May-19 08:30N 32°54' W 079°58'50 3.2
2015-May-18 16:30N 32°04' W 080°07'1615.9
2015-May-18 15:29N 31°59' W 080°25'1516.3
2015-May-18 14:33N 31°58' W 080°43'1211.8
2015-May-18 13:33N 32°03' W 080°56'7 7.4
2015-May-18 12:33N 32°05' W 081°04'4 4.4
2015-May-18 11:33N 32°08' W 081°08'0 0.1
2015-May-18 10:32N 32°08' W 081°08'0 0.0
2015-May-18 09:32N 32°08' W 081°08'0 0.0
2015-May-18 08:32N 32°08' W 081°08'0 0.0
2015-May-18 07:33N 32°08' W 081°08'0 0.0
2015-May-18 06:33N 32°08' W 081°08'0 0.0
2015-May-18 05:33N 32°08' W 081°08'0 0.0
2015-May-18 04:33N 32°08' W 081°08'0 0.0
2015-May-18 03:32N 32°08' W 081°08'0 0.0
2015-May-18 02:33N 32°08' W 081°08'0 0.0
2015-May-18 01:33N 32°08' W 081°08'0 0.0
2015-May-18 00:32N 32°08' W 081°08'0 0.0
2015-May-17 23:29N 32°08' W 081°08'0 0.0
2015-May-17 22:32N 32°08' W 081°08'0 0.0
2015-May-17 21:32N 32°08' W 081°08'0 0.0
2015-May-17 20:32N 32°08' W 081°08'0 0.0
2015-May-17 19:29N 32°08' W 081°08'0 0.0
2015-May-17 18:32N 32°08' W 081°08'0 0.0
2015-May-17 17:32N 32°08' W 081°08'0 0.0
2015-May-17 16:33N 32°08' W 081°08'0 0.0
2015-May-17 15:32N 32°08' W 081°08'0 0.0
2015-May-17 14:32N 32°08' W 081°08'0 0.0
2015-May-17 13:33N 32°08' W 081°08'3 2.6
2015-May-17 12:33N 32°06' W 081°06'7 7.0
2015-May-17 11:33N 32°04' W 080°58'1111.3
2015-May-17 10:33N 31°59' W 080°46'8 7.7
2015-May-17 09:33N 31°57' W 080°38'5 4.9
2015-May-17 08:33N 31°59' W 080°33'0 0.0
2015-May-17 07:32N 31°59' W 080°33'0 0.0
2015-May-17 06:32N 31°59' W 080°33'0 0.1
2015-May-17 05:26N 31°59' W 080°32'0 0.1
2015-May-17 04:26N 31°59' W 080°32'0 0.0
2015-May-17 03:29N 31°59' W 080°32'0 0.0
2015-May-17 02:29N 31°59' W 080°32'0 0.2
2015-May-17 01:32N 31°59' W 080°32'0 0.2
2015-May-17 00:29N 31°59' W 080°33'0 0.0
2015-May-16 23:32N 31°59' W 080°33'0 0.0
2015-May-16 22:29N 31°59' W 080°33'0 0.0
2015-May-16 21:32N 31°59' W 080°33'0 0.0
2015-May-16 20:32N 31°59' W 080°33'10 8.7
2015-May-16 19:22N 31°60' W 080°21'356 7.5
2015-May-14 20:07N 36°56' W 076°20'0 0.0
2015-May-14 19:31N 36°56' W 076°20'0 0.0
2015-May-14 18:31N 36°56' W 076°20'0 0.0
2015-May-14 17:31N 36°56' W 076°20'18614.1
2015-May-14 04:23N 39°21' W 073°54'1720.2
2015-May-14 03:33N 39°38' W 073°52'4119.9
2015-May-14 01:29N 40°19' W 073°49'1514.7
2015-May-14 00:28N 40°31' W 074°00'910.2
2015-May-13 23:34N 40°39' W 074°08'1 1.4
2015-May-13 22:33N 40°40' W 074°09'0 0.0
2015-May-13 21:33N 40°40' W 074°09'0 0.0
2015-May-13 20:33N 40°40' W 074°09'0 0.0
2015-May-13 19:30N 40°40' W 074°09'0 0.0
2015-May-13 18:33N 40°40' W 074°09'0 0.0
2015-May-13 17:33N 40°40' W 074°09'0 0.0
2015-May-13 16:33N 40°40' W 074°09'0 0.0
2015-May-13 15:33N 40°40' W 074°09'0 0.0
2015-May-13 14:33N 40°40' W 074°09'0 0.0
2015-May-13 13:33N 40°40' W 074°09'0 0.0
2015-May-13 12:33N 40°40' W 074°09'0 0.0
2015-May-13 11:33N 40°40' W 074°09'0 0.0
2015-May-13 10:33N 40°40' W 074°09'0 0.0
2015-May-13 09:33N 40°40' W 074°09'0 0.0
2015-May-13 08:33N 40°40' W 074°09'0 0.0
2015-May-13 07:33N 40°40' W 074°09'0 0.0
2015-May-13 06:33N 40°40' W 074°09'0 0.0
2015-May-13 05:33N 40°40' W 074°09'0 0.0
2015-May-13 04:33N 40°40' W 074°09'0 0.0
2015-May-13 03:33N 40°40' W 074°09'0 0.0
2015-May-13 02:33N 40°40' W 074°09'0 0.0
2015-May-13 01:33N 40°40' W 074°09'0 0.0
2015-May-13 00:33N 40°40' W 074°09'0 0.0
2015-May-12 23:33N 40°40' W 074°09'0 0.0
2015-May-12 22:33N 40°40' W 074°09'0 0.0
2015-May-12 21:24N 40°40' W 074°09'0 0.0
2015-May-12 20:33N 40°40' W 074°09'0 0.0
2015-May-12 19:33N 40°40' W 074°09'0 0.0
2015-May-12 18:33N 40°40' W 074°09'0 0.0
2015-May-12 17:33N 40°40' W 074°09'0 0.0
2015-May-12 16:33N 40°40' W 074°09'0 0.0
2015-May-12 15:33N 40°40' W 074°09'0 0.0
2015-May-12 14:33N 40°40' W 074°09'0 0.0
2015-May-12 13:30N 40°40' W 074°09'0 0.0
2015-May-12 12:33N 40°40' W 074°09'2 1.7
2015-May-12 11:33N 40°39' W 074°07'3 3.0
2015-May-12 10:33N 40°38' W 074°03'2 2.1
2015-May-12 09:33N 40°36' W 074°02'0 0.1
2015-May-12 08:33N 40°36' W 074°02'0 0.1
2015-May-12 07:33N 40°36' W 074°02'1 0.7
2015-May-12 06:33N 40°35' W 074°02'8 8.3
2015-May-12 05:33N 40°29' W 073°55'8 7.9
2015-May-12 04:33N 40°27' W 073°45'4 3.8
2015-May-12 03:33N 40°27' W 073°40'1111.0
2015-May-12 02:33N 40°28' W 073°25'1413.7
2015-May-12 01:33N 40°29' W 073°07'1514.4
2015-May-12 00:33N 40°30' W 072°48'1515.0
2015-May-11 23:33N 40°31' W 072°29'1515.3
2015-May-11 22:33N 40°31' W 072°09'1515.1
2015-May-11 21:33N 40°32' W 071°49'1515.2
2015-May-11 20:33N 40°32' W 071°29'1515.1
2015-May-11 19:33N 40°33' W 071°09'1514.9
2015-May-11 18:33N 40°33' W 070°49'1515.0
2015-May-11 17:33N 40°34' W 070°30'1615.1
2015-May-11 16:30N 40°34' W 070°09'1415.1
2015-May-11 15:33N 40°34' W 069°50'1615.6
2015-May-11 14:33N 40°35' W 069°29'1615.5
2015-May-11 13:33N 40°36' W 069°09'1616.0
2015-May-11 12:33N 40°36' W 068°47'1515.1
2015-May-11 11:34N 40°36' W 068°28'1615.2
2015-May-11 10:31N 40°35' W 068°07'1414.7
2015-May-11 09:32N 40°35' W 067°48'1814.9
2015-May-11 08:22N 40°34' W 067°25'  
Track history (hours):
 
Tides and Currents Weather Stations Pressure Air Temp Water Temp Dewpoint Dewpoint Depression Visibility Wind Speed Wind Dir Waves Ship Positions

CMA CGM Kingfish

Last reported at 2015-May-19 13:28 UTC. Time now 2015-May-25 01:26 UTC.
Position N 32°38' W 079°38'.

Length 294 m; draft 12.5 m.

Type: Ship (hazmat cat A). MMSI: 636015147.

Date/timePositionNaut miles runAvg speedWind from/ knotsBaromVisibWave heightAir tempDewpointWater temp
2015-May-19 13:28N 32°38' W 079°38'2111.1
2015-May-19 11:34N 32°52' W 079°57'3 1.0
2015-May-19 09:03N 32°54' W 079°58'0 0.0
2015-May-19 08:30N 32°54' W 079°58'50 3.2
2015-May-18 16:30N 32°04' W 080°07'1615.9
2015-May-18 15:29N 31°59' W 080°25'1516.3
2015-May-18 14:33N 31°58' W 080°43'1211.8
2015-May-18 13:33N 32°03' W 080°56'7 7.4
2015-May-18 12:33N 32°05' W 081°04'4 4.4
2015-May-18 11:33N 32°08' W 081°08'0 0.1
2015-May-18 10:32N 32°08' W 081°08'0 0.0
2015-May-18 09:32N 32°08' W 081°08'0 0.0
2015-May-18 08:32N 32°08' W 081°08'0 0.0
2015-May-18 07:33N 32°08' W 081°08'0 0.0
2015-May-18 06:33N 32°08' W 081°08'0 0.0
2015-May-18 05:33N 32°08' W 081°08'0 0.0
2015-May-18 04:33N 32°08' W 081°08'0 0.0
2015-May-18 03:32N 32°08' W 081°08'0 0.0
2015-May-18 02:33N 32°08' W 081°08'0 0.0
2015-May-18 01:33N 32°08' W 081°08'0 0.0
2015-May-18 00:32N 32°08' W 081°08'0 0.0
2015-May-17 23:29N 32°08' W 081°08'0 0.0
2015-May-17 22:32N 32°08' W 081°08'0 0.0
2015-May-17 21:32N 32°08' W 081°08'0 0.0
2015-May-17 20:32N 32°08' W 081°08'0 0.0
2015-May-17 19:29N 32°08' W 081°08'0 0.0
2015-May-17 18:32N 32°08' W 081°08'0 0.0
2015-May-17 17:32N 32°08' W 081°08'0 0.0
2015-May-17 16:33N 32°08' W 081°08'0 0.0
2015-May-17 15:32N 32°08' W 081°08'0 0.0
2015-May-17 14:32N 32°08' W 081°08'0 0.0
2015-May-17 13:33N 32°08' W 081°08'3 2.6
2015-May-17 12:33N 32°06' W 081°06'7 7.0
2015-May-17 11:33N 32°04' W 080°58'1111.3
2015-May-17 10:33N 31°59' W 080°46'8 7.7
2015-May-17 09:33N 31°57' W 080°38'5 4.9
2015-May-17 08:33N 31°59' W 080°33'0 0.0
2015-May-17 07:32N 31°59' W 080°33'0 0.0
2015-May-17 06:32N 31°59' W 080°33'0 0.1
2015-May-17 05:26N 31°59' W 080°32'0 0.1
2015-May-17 04:26N 31°59' W 080°32'0 0.0
2015-May-17 03:29N 31°59' W 080°32'0 0.0
2015-May-17 02:29N 31°59' W 080°32'0 0.2
2015-May-17 01:32N 31°59' W 080°32'0 0.2
2015-May-17 00:29N 31°59' W 080°33'0 0.0
2015-May-16 23:32N 31°59' W 080°33'0 0.0
2015-May-16 22:29N 31°59' W 080°33'0 0.0
2015-May-16 21:32N 31°59' W 080°33'0 0.0
2015-May-16 20:32N 31°59' W 080°33'10 8.7
2015-May-16 19:22N 31°60' W 080°21'356 7.5
2015-May-14 20:07N 36°56' W 076°20'0 0.0
2015-May-14 19:31N 36°56' W 076°20'0 0.0
2015-May-14 18:31N 36°56' W 076°20'0 0.0
2015-May-14 17:31N 36°56' W 076°20'18614.1
2015-May-14 04:23N 39°21' W 073°54'1720.2
2015-May-14 03:33N 39°38' W 073°52'4119.9
2015-May-14 01:29N 40°19' W 073°49'1514.7
2015-May-14 00:28N 40°31' W 074°00'910.2
2015-May-13 23:34N 40°39' W 074°08'1 1.4
2015-May-13 22:33N 40°40' W 074°09'0 0.0
2015-May-13 21:33N 40°40' W 074°09'0 0.0
2015-May-13 20:33N 40°40' W 074°09'0 0.0
2015-May-13 19:30N 40°40' W 074°09'0 0.0
2015-May-13 18:33N 40°40' W 074°09'0 0.0
2015-May-13 17:33N 40°40' W 074°09'0 0.0
2015-May-13 16:33N 40°40' W 074°09'0 0.0
2015-May-13 15:33N 40°40' W 074°09'0 0.0
2015-May-13 14:33N 40°40' W 074°09'0 0.0
2015-May-13 13:33N 40°40' W 074°09'0 0.0
2015-May-13 12:33N 40°40' W 074°09'0 0.0
2015-May-13 11:33N 40°40' W 074°09'0 0.0
2015-May-13 10:33N 40°40' W 074°09'0 0.0
2015-May-13 09:33N 40°40' W 074°09'0 0.0
2015-May-13 08:33N 40°40' W 074°09'0 0.0
2015-May-13 07:33N 40°40' W 074°09'0 0.0
2015-May-13 06:33N 40°40' W 074°09'0 0.0
2015-May-13 05:33N 40°40' W 074°09'0 0.0
2015-May-13 04:33N 40°40' W 074°09'0 0.0
2015-May-13 03:33N 40°40' W 074°09'0 0.0
2015-May-13 02:33N 40°40' W 074°09'0 0.0
2015-May-13 01:33N 40°40' W 074°09'0 0.0
2015-May-13 00:33N 40°40' W 074°09'0 0.0
2015-May-12 23:33N 40°40' W 074°09'0 0.0
2015-May-12 22:33N 40°40' W 074°09'0 0.0
2015-May-12 21:24N 40°40' W 074°09'0 0.0
2015-May-12 20:33N 40°40' W 074°09'0 0.0
2015-May-12 19:33N 40°40' W 074°09'0 0.0
2015-May-12 18:33N 40°40' W 074°09'0 0.0
2015-May-12 17:33N 40°40' W 074°09'0 0.0
2015-May-12 16:33N 40°40' W 074°09'0 0.0
2015-May-12 15:33N 40°40' W 074°09'0 0.0
2015-May-12 14:33N 40°40' W 074°09'0 0.0
2015-May-12 13:30N 40°40' W 074°09'0 0.0
2015-May-12 12:33N 40°40' W 074°09'2 1.7
2015-May-12 11:33N 40°39' W 074°07'3 3.0
2015-May-12 10:33N 40°38' W 074°03'2 2.1
2015-May-12 09:33N 40°36' W 074°02'0 0.1
2015-May-12 08:33N 40°36' W 074°02'0 0.1
2015-May-12 07:33N 40°36' W 074°02'1 0.7
2015-May-12 06:33N 40°35' W 074°02'8 8.3
2015-May-12 05:33N 40°29' W 073°55'8 7.9
2015-May-12 04:33N 40°27' W 073°45'4 3.8
2015-May-12 03:33N 40°27' W 073°40'1111.0
2015-May-12 02:33N 40°28' W 073°25'1413.7
2015-May-12 01:33N 40°29' W 073°07'1514.4
2015-May-12 00:33N 40°30' W 072°48'1515.0
2015-May-11 23:33N 40°31' W 072°29'1515.3
2015-May-11 22:33N 40°31' W 072°09'1515.1
2015-May-11 21:33N 40°32' W 071°49'1515.2
2015-May-11 20:33N 40°32' W 071°29'1515.1
2015-May-11 19:33N 40°33' W 071°09'1514.9
2015-May-11 18:33N 40°33' W 070°49'1515.0
2015-May-11 17:33N 40°34' W 070°30'1615.1
2015-May-11 16:30N 40°34' W 070°09'1415.1
2015-May-11 15:33N 40°34' W 069°50'1615.6
2015-May-11 14:33N 40°35' W 069°29'1615.5
2015-May-11 13:33N 40°36' W 069°09'1616.0
2015-May-11 12:33N 40°36' W 068°47'1515.1
2015-May-11 11:34N 40°36' W 068°28'1615.2
2015-May-11 10:31N 40°35' W 068°07'1414.7
2015-May-11 09:32N 40°35' W 067°48'1814.9
2015-May-11 08:22N 40°34' W 067°25'  

Dump ship's entire track history